Disclaimer

Please do not use the information listed here in-flight or in-navigation, as they are not provided to us by the airports but are provided by volunteers, so they might be outdated.

Search


Regions


Airport information page

Radio informations:
FIGARI TWR - 120.3 MHz
FIGARI GND - 121.8 MHz
FIGARI INFO - 118.725 MHz

Airport informations:
Latitude: 41° 30' 02.01" N
Longitude: 009° 05' 52.00" E
Elevation: 87 feet - 27 meters
Operating hours: Remarks
Operating agency: Civil government, landing fees and diplomatic clearance may be required
Timezone: UTC+1(+2DT) - Last Sunday in March to last Sunday in October
Fuel: Jet A1+, Jet A1 with icing inhibitor.

100/130 MIL Spec, low lead, aviation gasoline (BLUE)

Runway information:
05/23 - 8136 x 148 feet< - >2480 x 45 meters

Recent METARs:
LFKF 181900Z AUTO 08005KT 050V110 9999 BKN050 OVC060 11/05 Q1012 NOSIG
LFKF 181930Z AUTO 06007KT 030V090 9999 SCT056 OVC066 11/05 Q1012 NOSIG
LFKF 182000Z AUTO 08006KT 9999 BKN068 10/05 Q1011 NOSIG

Airport on the map: